Time;durP1;ratioP1;P1;durP2;ratioP2;P2;SDS_P1;SDS_P2;PMS_P1;PMS_P2;Temp;Humidity;BMP_temperature;BMP_pressure;BME280_temperature;BME280_humidity;BME280_pressure;Samples;Min_cycle;Max_cycle;Signal;HPM_P1;HPM_P2
2021/12/20 00:01:57;;;;;;;7.67;5.87;;;3.70;99.90;;;;;;5030345;28;20188;-75
2021/12/20 00:04:23;;;;;;;11.17;4.47;;;3.80;99.90;;;;;;5032830;28;20227;-74
2021/12/20 00:06:48;;;;;;;8.53;5.60;;;3.80;99.90;;;;;;5033243;28;20209;-75
2021/12/20 00:09:14;;;;;;;5.47;3.93;;;3.80;99.90;;;;;;5031774;28;20199;-75
2021/12/20 00:11:40;;;;;;;10.97;7.97;;;3.80;99.90;;;;;;5030211;28;20180;-75
2021/12/20 00:14:06;;;;;;;11.13;6.73;;;3.80;99.90;;;;;;5031754;28;20777;-75
2021/12/20 00:16:32;;;;;;;11.53;7.60;;;3.70;99.90;;;;;;5032703;28;20184;-74
2021/12/20 00:18:57;;;;;;;9.77;7.13;;;3.70;99.90;;;;;;5029317;28;20274;-75
2021/12/20 00:21:23;;;;;;;10.83;7.70;;;3.80;99.90;;;;;;5013256;28;20188;-74
2021/12/20 00:23:49;;;;;;;11.77;7.03;;;3.70;99.90;;;;;;5012977;28;20182;-75
2021/12/20 00:26:14;;;;;;;7.03;4.73;;;3.80;99.90;;;;;;5012623;28;20201;-74
2021/12/20 00:28:40;;;;;;;8.73;6.60;;;3.70;99.90;;;;;;5028689;28;20211;-74
2021/12/20 00:31:06;;;;;;;9.83;7.30;;;3.80;99.90;;;;;;5032657;28;20173;-75
2021/12/20 00:33:35;;;;;;;7.13;4.63;;;3.80;99.90;;;;;;5032506;28;20269;-74
2021/12/20 00:36:08;;;;;;;8.50;6.07;;;3.80;99.90;;;;;;5032273;28;20250;-75
2021/12/20 00:41:22;;;;;;;12.37;7.30;;;3.80;99.90;;;;;;5032623;28;20232;-74
2021/12/20 00:43:48;;;;;;;10.10;6.77;;;3.80;99.90;;;;;;5031166;28;20179;-75
2021/12/20 00:46:14;;;;;;;7.83;6.37;;;3.80;99.90;;;;;;5016144;28;20209;-75
2021/12/20 00:48:40;;;;;;;8.97;6.67;;;3.90;99.90;;;;;;5026235;28;20207;-74
2021/12/20 00:51:05;;;;;;;8.97;6.87;;;3.90;99.90;;;;;;5046966;28;20541;-75
2021/12/20 00:53:31;;;;;;;8.20;6.20;;;3.90;99.90;;;;;;5032165;28;20179;-74
2021/12/20 00:55:57;;;;;;;9.13;5.90;;;3.90;99.90;;;;;;5017822;28;20686;-74
2021/12/20 00:58:23;;;;;;;4.80;3.47;;;3.90;99.90;;;;;;5024831;28;20181;-74
2021/12/20 01:00:54;;;;;;;8.17;6.33;;;3.90;99.90;;;;;;5032344;28;20562;-75
2021/12/20 01:03:21;;;;;;;9.97;6.67;;;3.90;99.90;;;;;;5031999;28;20153;-75
2021/12/20 01:05:47;;;;;;;7.47;5.80;;;3.90;99.90;;;;;;5017122;28;20181;-75
2021/12/20 01:08:13;;;;;;;8.93;5.83;;;3.80;99.90;;;;;;5023214;28;20210;-75
2021/12/20 01:10:45;;;;;;;7.40;6.10;;;3.80;99.90;;;;;;5032152;28;20227;-74
2021/12/20 01:13:13;;;;;;;10.53;6.10;;;3.80;99.90;;;;;;5026636;28;20187;-74
2021/12/20 01:15:46;;;;;;;8.27;6.13;;;3.90;99.90;;;;;;5014036;28;20173;-75
2021/12/20 01:18:12;;;;;;;8.87;6.37;;;3.90;99.90;;;;;;5030373;28;20640;-75
2021/12/20 01:20:37;;;;;;;6.87;5.50;;;3.80;99.90;;;;;;5031628;28;20180;-74
2021/12/20 01:23:04;;;;;;;9.47;6.57;;;3.80;99.90;;;;;;5031052;28;20219;-73
2021/12/20 01:25:31;;;;;;;7.10;5.87;;;3.80;99.90;;;;;;5031725;28;20181;-74
2021/12/20 01:27:57;;;;;;;7.90;5.63;;;3.80;99.90;;;;;;5031636;28;20211;-74
2021/12/20 01:30:25;;;;;;;8.93;6.97;;;3.80;99.90;;;;;;5030441;28;20235;-75
2021/12/20 01:32:51;;;;;;;10.07;7.03;;;3.80;99.90;;;;;;5032038;28;20212;-75
2021/12/20 01:35:19;;;;;;;6.40;4.50;;;3.90;99.90;;;;;;5030225;28;20191;-75
2021/12/20 01:37:45;;;;;;;8.67;6.93;;;3.90;99.90;;;;;;5027274;28;20205;-74
2021/12/20 01:40:13;;;;;;;7.70;6.03;;;3.90;99.90;;;;;;5031717;28;20765;-75
2021/12/20 01:42:39;;;;;;;11.70;7.63;;;3.90;99.90;;;;;;5031764;28;20180;-75
2021/12/20 01:45:11;;;;;;;11.13;7.13;;;3.80;99.90;;;;;;5030143;28;20196;-75
2021/12/20 01:47:42;;;;;;;10.07;7.10;;;3.80;99.90;;;;;;5031221;28;20234;-75
2021/12/20 01:51:00;;;;;;;10.87;7.40;;;3.80;99.90;;;;;;5039018;28;20195;-75
2021/12/20 01:53:00;;;;;;;8.80;6.27;;;3.70;99.90;;;;;;5034621;28;20211;-75
2021/12/20 01:55:25;;;;;;;9.77;6.83;;;3.70;99.90;;;;;;5025532;28;20192;-75
2021/12/20 01:57:51;;;;;;;7.93;6.00;;;3.70;99.90;;;;;;5018508;28;20185;-75
2021/12/20 02:00:20;;;;;;;8.18;7.20;;;3.70;99.90;;;;;;5031557;28;20707;-75
2021/12/20 02:02:46;;;;;;;7.57;6.23;;;3.70;99.90;;;;;;5028855;28;20189;-75
2021/12/20 02:05:24;;;;;;;12.10;7.03;;;3.70;99.90;;;;;;5031306;28;20187;-75
2021/12/20 02:08:00;;;;;;;9.70;7.17;;;3.80;99.90;;;;;;5031280;28;20203;-75
2021/12/20 02:10:26;;;;;;;9.80;7.77;;;3.80;99.90;;;;;;5030825;28;20205;-75
2021/12/20 02:12:53;;;;;;;9.43;6.33;;;3.80;99.90;;;;;;5028203;28;20674;-75
2021/12/20 02:15:19;;;;;;;10.97;7.70;;;3.70;99.90;;;;;;5031307;28;20181;-75
2021/12/20 02:17:45;;;;;;;9.93;7.33;;;3.70;99.90;;;;;;5031039;28;20177;-75
2021/12/20 02:20:29;;;;;;;4.80;3.90;;;3.70;99.90;;;;;;5022340;28;20460;-75
2021/12/20 02:22:57;;;;;;;3.17;2.47;;;3.70;99.90;;;;;;5011758;28;20676;-74
2021/12/20 02:25:23;;;;;;;2.47;2.20;;;3.60;99.90;;;;;;5020124;28;20314;-74
2021/12/20 02:27:49;;;;;;;2.00;1.80;;;3.50;99.90;;;;;;5029091;28;20219;-74
2021/12/20 02:30:40;;;;;;;3.00;1.97;;;3.30;99.90;;;;;;5012887;28;20599;-74
2021/12/20 02:38:33;;;;;;;3.13;1.67;;;2.80;99.90;;;;;;5034866;28;20219;-75
2021/12/20 02:41:09;;;;;;;2.70;2.10;;;2.70;99.90;;;;;;5018537;28;20711;-74
2021/12/20 02:43:40;;;;;;;3.17;1.90;;;2.70;99.90;;;;;;5014941;28;20192;-73
2021/12/20 02:46:24;;;;;;;2.80;1.97;;;2.50;99.90;;;;;;5014514;28;20636;-71
2021/12/20 02:48:49;;;;;;;2.37;1.70;;;2.60;99.90;;;;;;5028391;28;20563;-70
2021/12/20 02:51:15;;;;;;;1.73;1.63;;;2.60;99.90;;;;;;5033142;28;20184;-74
2021/12/20 02:53:41;;;;;;;2.43;1.83;;;2.70;99.90;;;;;;5034857;28;20504;-74
2021/12/20 02:56:06;;;;;;;3.47;2.03;;;2.80;99.90;;;;;;5034139;28;20711;-74
2021/12/20 02:58:32;;;;;;;2.10;1.90;;;2.80;99.90;;;;;;5023734;28;20204;-73
2021/12/20 03:00:57;;;;;;;5.60;2.00;;;2.70;99.90;;;;;;5014437;28;20228;-74
2021/12/20 03:03:25;;;;;;;2.17;1.97;;;2.60;99.90;;;;;;5014610;28;20180;-74
2021/12/20 03:05:51;;;;;;;1.97;1.87;;;2.70;99.90;;;;;;5014159;28;20550;-73
2021/12/20 03:08:20;;;;;;;6.03;2.03;;;2.60;99.90;;;;;;5022724;28;20208;-74
2021/12/20 03:10:46;;;;;;;2.20;2.00;;;2.70;99.90;;;;;;5034227;28;20654;-75
2021/12/20 03:13:13;;;;;;;2.47;2.00;;;2.70;99.90;;;;;;5032854;28;20189;-73
2021/12/20 03:15:39;;;;;;;3.77;2.20;;;2.60;99.90;;;;;;5032544;28;20187;-74
2021/12/20 03:18:05;;;;;;;2.80;2.50;;;2.60;99.90;;;;;;5032451;28;20181;-74
2021/12/20 03:20:31;;;;;;;3.13;2.63;;;2.60;99.90;;;;;;5029047;28;20229;-73
2021/12/20 03:22:56;;;;;;;2.90;2.13;;;2.70;99.90;;;;;;5013216;28;20208;-74
2021/12/20 03:25:22;;;;;;;3.27;2.30;;;2.70;99.90;;;;;;5032349;28;20667;-74
2021/12/20 03:27:48;;;;;;;3.80;2.77;;;2.60;99.90;;;;;;5033516;28;20204;-74
2021/12/20 03:30:14;;;;;;;3.00;2.70;;;2.60;99.90;;;;;;5033667;28;20246;-74
2021/12/20 03:32:40;;;;;;;3.77;2.63;;;2.60;99.90;;;;;;5032486;28;20181;-75
2021/12/20 03:35:08;;;;;;;4.50;2.90;;;2.50;99.90;;;;;;5033418;28;20173;-75
2021/12/20 03:37:33;;;;;;;4.03;3.00;;;2.50;99.90;;;;;;5031882;28;20187;-74
2021/12/20 03:39:59;;;;;;;3.53;3.23;;;2.50;99.90;;;;;;5033705;28;20204;-73
2021/12/20 03:42:27;;;;;;;5.57;3.20;;;2.60;99.90;;;;;;5014324;28;20276;-75
2021/12/20 03:44:53;;;;;;;7.43;4.27;;;2.80;99.90;;;;;;5011794;28;20196;-74
2021/12/20 03:47:19;;;;;;;4.40;3.30;;;2.80;99.90;;;;;;5013755;28;20209;-74
2021/12/20 03:49:45;;;;;;;4.83;3.57;;;2.80;99.90;;;;;;5052261;28;20574;-75
2021/12/20 03:52:11;;;;;;;6.67;3.33;;;2.70;99.90;;;;;;5042209;28;20256;-74
2021/12/20 03:54:38;;;;;;;4.90;3.17;;;2.70;99.90;;;;;;5033017;28;20177;-74
2021/12/20 03:57:05;;;;;;;4.73;3.83;;;2.80;99.90;;;;;;5031984;28;20199;-72
2021/12/20 03:59:30;;;;;;;4.07;3.67;;;2.90;99.90;;;;;;5032999;28;20216;-74
2021/12/20 04:01:57;;;;;;;4.77;4.27;;;2.90;99.90;;;;;;5033398;28;20188;-74
2021/12/20 04:04:23;;;;;;;4.53;4.03;;;3.00;99.90;;;;;;5030145;28;20203;-74
2021/12/20 04:06:49;;;;;;;4.30;3.77;;;3.00;99.90;;;;;;5031990;28;20208;-74
2021/12/20 04:09:14;;;;;;;3.77;3.47;;;3.00;99.90;;;;;;5032837;28;20203;-74
2021/12/20 04:11:40;;;;;;;5.43;3.80;;;3.10;99.90;;;;;;5033019;28;20651;-74
2021/12/20 04:14:06;;;;;;;4.87;3.43;;;3.10;99.90;;;;;;5023379;28;20185;-73
2021/12/20 04:16:33;;;;;;;7.77;4.17;;;3.00;99.90;;;;;;5011645;28;20220;-73
2021/12/20 04:18:58;;;;;;;5.30;3.70;;;3.00;99.90;;;;;;5024836;28;20212;-74
2021/12/20 04:21:24;;;;;;;5.17;3.20;;;3.00;99.90;;;;;;5032711;28;20697;-73
2021/12/20 04:23:50;;;;;;;3.40;3.10;;;3.10;99.90;;;;;;5018252;28;20193;-74
2021/12/20 04:26:15;;;;;;;3.07;2.87;;;3.00;99.90;;;;;;5013070;28;20708;-74
2021/12/20 04:28:41;;;;;;;4.53;2.83;;;3.00;99.90;;;;;;5025530;28;20205;-74
2021/12/20 04:31:08;;;;;;;3.63;2.57;;;3.00;99.90;;;;;;5032928;28;20252;-74
2021/12/20 04:33:34;;;;;;;3.90;3.20;;;3.00;99.90;;;;;;5030377;28;20600;-74
2021/12/20 04:36:00;;;;;;;4.67;2.87;;;3.00;99.90;;;;;;5032308;28;20173;-74
2021/12/20 04:38:28;;;;;;;4.00;2.53;;;2.90;99.90;;;;;;5032949;28;20226;-74
2021/12/20 04:40:54;;;;;;;2.33;2.13;;;3.00;99.90;;;;;;5030398;28;20279;-73
2021/12/20 04:43:20;;;;;;;4.23;2.57;;;2.90;99.90;;;;;;5032388;28;20221;-75
2021/12/20 04:45:46;;;;;;;7.03;3.03;;;2.90;99.90;;;;;;5032222;28;20173;-75
2021/12/20 04:48:11;;;;;;;4.03;2.67;;;2.80;99.90;;;;;;5031925;28;20208;-74
2021/12/20 04:50:38;;;;;;;2.67;2.33;;;2.90;99.90;;;;;;5029624;28;20177;-74
2021/12/20 04:53:05;;;;;;;3.63;2.97;;;2.80;99.90;;;;;;5032162;28;20945;-74
2021/12/20 04:55:30;;;;;;;3.77;2.60;;;2.80;99.90;;;;;;5029728;28;20735;-74
2021/12/20 04:58:06;;;;;;;4.87;3.20;;;2.80;99.90;;;;;;5031267;28;20263;-74
2021/12/20 05:00:34;;;;;;;3.77;2.53;;;2.70;99.90;;;;;;5023102;28;20302;-75
2021/12/20 05:03:01;;;;;;;3.20;2.70;;;2.70;99.90;;;;;;5031204;28;20668;-73
2021/12/20 05:05:28;;;;;;;2.87;2.20;;;2.70;99.90;;;;;;5031169;28;20176;-75
2021/12/20 05:07:55;;;;;;;2.60;2.40;;;2.70;99.90;;;;;;5029162;28;20204;-74
2021/12/20 05:10:26;;;;;;;6.33;3.00;;;2.60;99.90;;;;;;5031449;28;20204;-74
2021/12/20 05:12:53;;;;;;;4.00;2.43;;;2.60;99.90;;;;;;5030391;28;20183;-74
2021/12/20 05:15:19;;;;;;;4.03;2.10;;;2.60;99.90;;;;;;5022906;28;20188;-72
2021/12/20 05:17:45;;;;;;;3.40;2.60;;;2.50;99.90;;;;;;5030965;28;20194;-74
2021/12/20 05:20:12;;;;;;;3.50;2.20;;;2.50;99.90;;;;;;5029788;28;20211;-74
2021/12/20 05:22:37;;;;;;;2.97;2.60;;;2.50;99.90;;;;;;5029852;28;20545;-74
2021/12/20 05:25:03;;;;;;;4.33;2.27;;;2.50;99.90;;;;;;5028025;28;20187;-74
2021/12/20 05:27:29;;;;;;;3.33;2.53;;;2.60;99.90;;;;;;5029759;28;20200;-75
2021/12/20 05:29:54;;;;;;;3.27;2.20;;;2.60;99.90;;;;;;5037748;28;20195;-75
2021/12/20 05:32:20;;;;;;;4.17;2.43;;;2.50;99.90;;;;;;5039444;28;20289;-74
2021/12/20 05:34:46;;;;;;;4.13;2.33;;;2.50;99.90;;;;;;5030956;28;20165;-75
2021/12/20 05:37:13;;;;;;;5.47;2.73;;;2.50;99.90;;;;;;5031838;28;20242;-74
2021/12/20 05:39:40;;;;;;;2.67;2.23;;;2.50;99.90;;;;;;5034871;28;20187;-74
2021/12/20 05:42:06;;;;;;;4.70;2.33;;;2.50;99.90;;;;;;5038255;28;20180;-76
2021/12/20 05:44:32;;;;;;;2.57;2.37;;;2.60;99.90;;;;;;5042828;28;20262;-75
2021/12/20 05:46:57;;;;;;;6.40;2.50;;;2.60;99.90;;;;;;5033838;28;20338;-74
2021/12/20 05:49:23;;;;;;;3.90;2.47;;;2.60;99.90;;;;;;5030617;28;20689;-74
2021/12/20 05:51:49;;;;;;;5.30;2.40;;;2.60;99.90;;;;;;5032145;28;20173;-74
2021/12/20 05:54:14;;;;;;;2.83;2.53;;;2.60;99.90;;;;;;5031652;28;20251;-75
2021/12/20 05:56:40;;;;;;;6.73;3.00;;;2.70;99.90;;;;;;5028033;28;20184;-75
2021/12/20 05:59:06;;;;;;;3.97;2.33;;;2.60;99.90;;;;;;5031245;28;20702;-75
2021/12/20 06:01:32;;;;;;;5.73;2.60;;;2.60;99.90;;;;;;5030215;28;20218;-75
2021/12/20 06:03:58;;;;;;;5.40;3.60;;;2.60;99.90;;;;;;5032000;28;20177;-74
2021/12/20 06:06:28;;;;;;;6.20;2.50;;;2.50;99.90;;;;;;5030571;28;21771;-75
2021/12/20 06:08:53;;;;;;;4.07;2.13;;;2.50;99.90;;;;;;5034040;28;20219;-74
2021/12/20 06:11:19;;;;;;;4.77;2.23;;;2.50;99.90;;;;;;5034910;28;20169;-75
2021/12/20 06:13:45;;;;;;;4.03;2.47;;;2.50;99.90;;;;;;5037215;28;20185;-74
2021/12/20 06:16:10;;;;;;;10.17;2.40;;;2.40;99.90;;;;;;5034114;28;20201;-72
2021/12/20 06:18:36;;;;;;;4.70;3.00;;;2.30;99.90;;;;;;5036095;28;20234;-73
2021/12/20 06:21:02;;;;;;;2.93;2.70;;;2.30;99.90;;;;;;5045502;28;20180;-73
2021/12/20 06:23:28;;;;;;;4.20;2.50;;;2.20;99.90;;;;;;5041762;28;20176;-72
2021/12/20 06:25:53;;;;;;;7.33;2.53;;;2.20;99.90;;;;;;5043612;28;20173;-73
2021/12/20 06:28:19;;;;;;;4.33;2.70;;;2.20;99.90;;;;;;5041805;28;20235;-73
2021/12/20 06:30:44;;;;;;;3.10;2.43;;;2.20;99.90;;;;;;5042183;28;20176;-75
2021/12/20 06:33:10;;;;;;;5.60;3.47;;;2.20;99.90;;;;;;5045280;28;20662;-76
2021/12/20 06:35:36;;;;;;;4.37;2.50;;;2.10;99.90;;;;;;5043218;28;20172;-75
2021/12/20 06:38:03;;;;;;;4.23;3.00;;;2.10;99.90;;;;;;5040756;28;20191;-75
2021/12/20 06:40:31;;;;;;;5.33;2.40;;;2.10;99.90;;;;;;5039390;28;20310;-76
2021/12/20 06:42:57;;;;;;;3.60;2.30;;;2.10;99.90;;;;;;5042385;28;20256;-76
2021/12/20 06:45:22;;;;;;;5.43;2.53;;;2.00;99.90;;;;;;5043230;28;20253;-75
2021/12/20 06:47:49;;;;;;;2.67;2.40;;;1.90;99.90;;;;;;5042534;28;20234;-75
2021/12/20 06:50:14;;;;;;;5.47;2.47;;;1.90;99.90;;;;;;5043252;28;20224;-75
2021/12/20 06:52:40;;;;;;;4.37;2.83;;;1.80;99.90;;;;;;5043576;28;20692;-75
2021/12/20 06:55:06;;;;;;;4.70;2.63;;;1.70;99.90;;;;;;5044922;28;20290;-75
2021/12/20 06:57:32;;;;;;;2.50;2.30;;;1.60;99.90;;;;;;5042171;28;20184;-74
2021/12/20 07:00:00;;;;;;;2.40;2.20;;;1.60;99.90;;;;;;5039232;28;20759;-76
2021/12/20 07:02:25;;;;;;;6.30;2.73;;;1.60;99.90;;;;;;5043184;28;20200;-76
2021/12/20 07:04:51;;;;;;;3.00;2.80;;;1.60;99.90;;;;;;5044433;28;20686;-75
2021/12/20 07:07:16;;;;;;;3.43;3.10;;;1.60;99.90;;;;;;5040256;28;20259;-75
2021/12/20 07:09:42;;;;;;;4.43;2.53;;;1.60;99.90;;;;;;5034041;28;20200;-75
2021/12/20 07:12:08;;;;;;;5.60;2.97;;;1.70;99.90;;;;;;5034197;28;20240;-75
2021/12/20 07:14:34;;;;;;;2.70;2.50;;;1.70;99.90;;;;;;5035211;28;20173;-75
2021/12/20 07:17:00;;;;;;;4.67;3.00;;;1.70;99.90;;;;;;5033221;28;20196;-74
2021/12/20 07:19:26;;;;;;;4.73;2.90;;;1.60;99.90;;;;;;5032873;28;20196;-75
2021/12/20 07:21:51;;;;;;;3.37;2.90;;;1.70;99.90;;;;;;5032839;28;20647;-74
2021/12/20 07:24:17;;;;;;;4.73;3.37;;;1.60;99.90;;;;;;5032836;28;20207;-75
2021/12/20 07:26:43;;;;;;;3.47;2.97;;;1.50;99.90;;;;;;5028034;28;20733;-75
2021/12/20 07:29:09;;;;;;;6.07;3.77;;;1.40;99.90;;;;;;5033217;28;20690;-75
2021/12/20 07:31:35;;;;;;;5.87;3.13;;;1.40;99.90;;;;;;5033050;28;20223;-76
2021/12/20 07:34:00;;;;;;;3.47;3.17;;;1.40;99.90;;;;;;5031840;28;20640;-75
2021/12/20 07:36:26;;;;;;;6.10;3.00;;;1.40;99.90;;;;;;5026835;28;20206;-75
2021/12/20 07:38:52;;;;;;;4.70;3.27;;;1.40;99.90;;;;;;5033046;28;20207;-77
2021/12/20 07:41:22;;;;;;;3.83;3.00;;;1.50;99.90;;;;;;5031863;28;20172;-77
2021/12/20 07:43:49;;;;;;;4.17;3.07;;;1.50;99.90;;;;;;5032811;28;20180;-75
2021/12/20 07:46:16;;;;;;;2.70;2.50;;;1.40;99.90;;;;;;5030346;28;20172;-77
2021/12/20 07:48:42;;;;;;;3.80;3.50;;;1.40;99.90;;;;;;5031351;28;20219;-76
2021/12/20 07:51:08;;;;;;;5.10;2.83;;;1.30;99.90;;;;;;5033075;28;20191;-74
2021/12/20 07:53:33;;;;;;;7.87;3.60;;;1.30;99.90;;;;;;5030581;28;20181;-77
2021/12/20 07:55:59;;;;;;;6.97;3.10;;;1.30;99.90;;;;;;5032313;28;20172;-77
2021/12/20 07:58:25;;;;;;;6.53;3.07;;;1.30;99.90;;;;;;5032354;28;20183;-75
2021/12/20 08:00:51;;;;;;;3.27;2.77;;;1.20;99.90;;;;;;5032490;28;20291;-77
2021/12/20 08:03:17;;;;;;;13.53;3.77;;;1.30;99.90;;;;;;5030304;28;20211;-77
2021/12/20 08:05:44;;;;;;;5.40;3.10;;;1.30;99.90;;;;;;5031351;28;20836;-76
2021/12/20 08:08:10;;;;;;;7.97;3.30;;;1.30;99.90;;;;;;5031708;28;20205;-75
2021/12/20 08:10:35;;;;;;;3.90;3.50;;;1.30;99.90;;;;;;5032662;28;20679;-75
2021/12/20 08:13:01;;;;;;;7.10;3.57;;;1.30;99.90;;;;;;5031684;28;20617;-77
2021/12/20 08:15:28;;;;;;;3.60;3.10;;;1.40;99.90;;;;;;5028328;28;20181;-77
2021/12/20 08:17:54;;;;;;;4.67;3.23;;;1.40;99.90;;;;;;5030754;28;20191;-77
2021/12/20 08:20:20;;;;;;;4.83;3.13;;;1.40;99.90;;;;;;5032159;28;20200;-74
2021/12/20 08:22:46;;;;;;;3.53;3.23;;;1.50;99.90;;;;;;5018136;28;20197;-74
2021/12/20 08:25:13;;;;;;;7.53;3.70;;;1.50;99.90;;;;;;5011771;28;20185;-72
2021/12/20 08:27:39;;;;;;;5.80;3.03;;;1.50;99.90;;;;;;5030305;28;20574;-75
2021/12/20 08:30:05;;;;;;;6.57;3.90;;;1.50;99.90;;;;;;5031453;28;20257;-75
2021/12/20 08:32:31;;;;;;;4.00;2.80;;;1.50;99.90;;;;;;5032935;28;20223;-76
2021/12/20 08:34:57;;;;;;;7.63;2.90;;;1.50;99.90;;;;;;5036665;28;20196;-76
2021/12/20 08:37:23;;;;;;;7.70;3.20;;;1.70;99.90;;;;;;5041719;28;20197;-76
2021/12/20 08:39:49;;;;;;;5.87;3.63;;;1.60;99.90;;;;;;5039225;28;20204;-76
2021/12/20 08:42:15;;;;;;;9.30;3.27;;;1.70;99.90;;;;;;5037759;28;20185;-76
2021/12/20 08:44:40;;;;;;;8.37;2.70;;;1.70;99.90;;;;;;5017652;28;20191;-76
2021/12/20 08:47:06;;;;;;;4.63;3.27;;;1.80;99.90;;;;;;5024259;28;20207;-77
2021/12/20 08:49:32;;;;;;;1.77;1.67;;;1.80;99.90;;;;;;5035089;28;20231;-78
2021/12/20 08:51:58;;;;;;;5.27;3.30;;;1.90;99.90;;;;;;5028017;28;20791;-78
2021/12/20 08:54:27;;;;;;;8.10;3.60;;;2.10;99.90;;;;;;5011783;28;20300;-77
2021/12/20 08:56:53;;;;;;;8.13;3.33;;;2.20;99.90;;;;;;5011205;28;20243;-76
2021/12/20 08:59:19;;;;;;;5.70;3.30;;;2.40;99.90;;;;;;5026900;28;20212;-76
2021/12/20 09:01:45;;;;;;;5.77;3.63;;;2.90;99.90;;;;;;5031628;28;20177;-76
2021/12/20 09:04:11;;;;;;;5.57;3.37;;;3.70;99.90;;;;;;5031854;28;20269;-79
2021/12/20 09:06:42;;;;;;;4.30;3.53;;;4.40;99.90;;;;;;5031888;28;20717;-77
2021/12/20 09:09:10;;;;;;;6.23;2.70;;;4.80;99.90;;;;;;5026806;28;20200;-78
2021/12/20 09:11:36;;;;;;;5.10;2.70;;;4.80;99.90;;;;;;5029816;28;20537;-77
2021/12/20 09:14:02;;;;;;;6.27;3.10;;;4.90;99.90;;;;;;5041073;28;20185;-76
2021/12/20 09:16:28;;;;;;;5.30;2.60;;;5.20;99.90;;;;;;5034151;28;20180;-75
2021/12/20 09:18:54;;;;;;;2.63;2.43;;;5.00;99.90;;;;;;5030312;28;20671;-75
2021/12/20 09:21:19;;;;;;;6.30;3.03;;;4.70;99.90;;;;;;5031123;28;20238;-74
2021/12/20 09:23:45;;;;;;;3.53;2.53;;;4.50;99.90;;;;;;5029481;28;20180;-73
2021/12/20 09:26:11;;;;;;;4.00;2.50;;;4.40;99.90;;;;;;5039127;28;20643;-73
2021/12/20 09:28:38;;;;;;;3.20;2.50;;;4.70;99.90;;;;;;5034600;28;20591;-74
2021/12/20 09:31:04;;;;;;;5.15;2.75;;;5.70;99.90;;;;;;5029661;28;20593;-74
2021/12/20 09:33:30;;;;;;;3.70;2.03;;;7.30;99.90;;;;;;5029164;28;20268;-74
2021/12/20 09:35:56;;;;;;;2.22;1.88;;;9.30;99.90;;;;;;5030163;28;20211;-74
2021/12/20 09:38:23;;;;;;;1.63;1.52;;;11.20;99.90;;;;;;5032323;28;20231;-74
2021/12/20 09:43:54;;;;;;;5.28;1.90;;;13.00;99.90;;;;;;5030795;28;20176;-74
2021/12/20 09:46:24;;;;;;;2.83;1.90;;;13.70;97.30;;;;;;5035709;28;20184;-76
2021/12/20 09:48:50;;;;;;;4.85;2.35;;;14.30;93.10;;;;;;5053765;28;20192;-76
2021/12/20 09:51:17;;;;;;;3.58;2.10;;;15.10;90.40;;;;;;5052938;28;20233;-76
2021/12/20 09:53:42;;;;;;;4.03;2.30;;;15.70;86.60;;;;;;5031187;28;20185;-75
2021/12/20 09:56:09;;;;;;;3.25;2.08;;;16.10;79.40;;;;;;5035376;28;20176;-74
2021/12/20 09:58:38;;;;;;;3.28;2.20;;;16.30;79.80;;;;;;5047854;28;20199;-75
2021/12/20 10:01:06;;;;;;;4.07;2.30;;;16.60;75.10;;;;;;5025741;28;20189;-75
2021/12/20 10:03:32;;;;;;;3.85;2.33;;;17.30;71.80;;;;;;5045015;28;20256;-76
2021/12/20 10:05:58;;;;;;;4.65;2.20;;;17.40;69.20;;;;;;5032583;28;20324;-76
2021/12/20 10:08:32;;;;;;;4.25;2.90;;;17.10;68.60;;;;;;5033888;28;20209;-76
2021/12/20 10:11:04;;;;;;;3.25;2.50;;;16.80;66.20;;;;;;5034502;28;20617;-76
2021/12/20 10:13:35;;;;;;;3.47;2.42;;;16.80;66.80;;;;;;5035199;28;20172;-75
2021/12/20 10:16:12;;;;;;;7.57;3.20;;;17.10;65.80;;;;;;5034127;28;20315;-76
2021/12/20 10:18:38;;;;;;;5.68;2.60;;;17.40;64.60;;;;;;5035683;28;20215;-76
2021/12/20 10:21:04;;;;;;;4.32;2.60;;;17.80;64.90;;;;;;5034441;28;20195;-79
2021/12/20 10:23:39;;;;;;;4.72;2.60;;;17.60;62.20;;;;;;5033289;28;20184;-76
2021/12/20 10:26:19;;;;;;;2.72;2.05;;;17.20;62.50;;;;;;5034940;28;20643;-75
2021/12/20 10:28:45;;;;;;;2.17;2.00;;;17.40;62.10;;;;;;5033653;28;20219;-76
2021/12/20 10:31:19;;;;;;;5.07;2.35;;;17.10;61.70;;;;;;5033877;28;20239;-77
2021/12/20 10:33:54;;;;;;;3.60;2.50;;;18.00;61.70;;;;;;5029833;28;20590;-77
2021/12/20 10:36:19;;;;;;;2.60;1.50;;;18.40;60.40;;;;;;5039451;28;20175;-77
2021/12/20 10:38:48;;;;;;;3.05;1.83;;;19.00;58.50;;;;;;5039738;28;20217;-76
2021/12/20 10:41:18;;;;;;;2.60;1.48;;;19.20;57.00;;;;;;5035030;28;20180;-76
2021/12/20 10:43:58;;;;;;;3.53;1.80;;;19.70;55.60;;;;;;5035219;28;20238;-76
2021/12/20 10:46:35;;;;;;;4.82;1.80;;;20.20;52.80;;;;;;5034813;28;20177;-77
2021/12/20 10:49:08;;;;;;;3.15;1.70;;;20.00;54.50;;;;;;5035649;28;20671;-77
2021/12/20 10:51:39;;;;;;;4.45;2.10;;;20.40;53.90;;;;;;5037726;28;20177;-76
2021/12/20 10:54:10;;;;;;;4.57;2.22;;;20.60;52.70;;;;;;5037190;28;20196;-76
2021/12/20 10:56:51;;;;;;;1.45;1.35;;;20.30;52.10;;;;;;5033561;28;20172;-76
2021/12/20 10:59:24;;;;;;;1.48;1.23;;;20.30;52.60;;;;;;5036394;28;20212;-76
2021/12/20 11:04:25;;;;;;;2.83;1.38;;;19.90;51.70;;;;;;5046036;28;20246;-78
2021/12/20 11:09:24;;;;;;;2.00;1.17;;;19.70;48.10;;;;;;5047558;28;20184;-78
2021/12/20 11:11:56;;;;;;;2.05;1.60;;;18.70;48.30;;;;;;5045354;28;20267;-77
2021/12/20 11:14:26;;;;;;;2.47;1.40;;;18.10;50.60;;;;;;5026708;28;20215;-77
2021/12/20 11:16:55;;;;;;;1.17;1.08;;;18.50;49.50;;;;;;5034753;28;20187;-77
2021/12/20 11:19:27;;;;;;;1.98;1.50;;;18.20;50.10;;;;;;5043106;28;20566;-77
2021/12/20 11:21:58;;;;;;;1.92;1.60;;;17.60;51.30;;;;;;5043457;28;20191;-76
2021/12/20 11:24:51;;;;;;;1.95;1.73;;;18.10;50.80;;;;;;5045579;28;20195;-78
2021/12/20 11:27:38;;;;;;;2.15;1.25;;;18.60;51.00;;;;;;5045452;28;20193;-77
2021/12/20 11:30:15;;;;;;;3.97;1.42;;;19.60;48.60;;;;;;5042050;28;20197;-77
2021/12/20 11:32:42;;;;;;;4.80;1.92;;;18.80;49.40;;;;;;5043101;28;20164;-78
2021/12/20 11:35:08;;;;;;;3.63;1.58;;;19.50;47.60;;;;;;5038191;28;20196;-77
2021/12/20 11:37:35;;;;;;;3.47;1.50;;;20.20;48.00;;;;;;5029870;28;20181;-76
2021/12/20 11:40:04;;;;;;;1.30;1.20;;;21.40;46.10;;;;;;5034393;28;20236;-77
2021/12/20 11:42:30;;;;;;;5.00;1.50;;;20.40;47.00;;;;;;5035593;28;20180;-77
2021/12/20 11:44:59;;;;;;;3.00;1.63;;;20.00;47.80;;;;;;5034935;28;20192;-80
2021/12/20 11:47:36;;;;;;;1.48;1.30;;;19.60;47.20;;;;;;5031903;28;20223;-76
2021/12/20 11:50:07;;;;;;;3.00;1.70;;;19.80;46.80;;;;;;5036261;28;20626;-77
2021/12/20 11:52:35;;;;;;;4.47;1.88;;;20.10;47.90;;;;;;5035597;28;20187;-75
2021/12/20 11:55:19;;;;;;;3.80;1.70;;;19.20;48.20;;;;;;5032347;28;20177;-76
2021/12/20 11:57:53;;;;;;;3.10;1.88;;;19.20;48.90;;;;;;5046103;28;20184;-77
2021/12/20 12:00:30;;;;;;;1.30;1.20;;;20.10;47.30;;;;;;5030939;28;20216;-77
2021/12/20 12:03:15;;;;;;;1.80;1.30;;;21.70;46.10;;;;;;5026145;28;20204;-77
2021/12/20 12:05:51;;;;;;;1.73;1.23;;;21.80;45.50;;;;;;5033517;28;20651;-76
2021/12/20 12:08:37;;;;;;;1.05;1.02;;;22.30;43.60;;;;;;5033135;28;20279;-81
2021/12/20 12:11:04;;;;;;;2.85;1.30;;;21.10;44.90;;;;;;5015483;28;20205;-77
2021/12/20 12:13:58;;;;;;;3.20;1.45;;;20.60;45.00;;;;;;5014308;28;20170;-76
2021/12/20 12:16:45;;;;;;;1.65;1.48;;;19.70;45.90;;;;;;5031498;28;20172;-75
2021/12/20 12:19:12;;;;;;;3.17;1.42;;;19.20;46.10;;;;;;5023372;28;20196;-75
2021/12/20 12:21:40;;;;;;;1.13;1.02;;;19.70;46.40;;;;;;5013231;28;20173;-75
2021/12/20 12:24:14;;;;;;;3.03;1.20;;;19.50;46.30;;;;;;5010594;28;20191;-75
2021/12/20 12:26:46;;;;;;;2.05;1.20;;;18.40;47.50;;;;;;5015152;28;20201;-74
2021/12/20 12:29:16;;;;;;;3.40;1.50;;;19.00;47.60;;;;;;5014539;28;20703;-74
2021/12/20 12:31:54;;;;;;;2.80;1.45;;;19.60;46.30;;;;;;5013753;28;20283;-75
2021/12/20 12:34:21;;;;;;;1.95;1.23;;;19.90;46.60;;;;;;5012807;28;20204;-75
2021/12/20 12:36:47;;;;;;;2.35;1.30;;;20.00;45.90;;;;;;5013156;28;20181;-76
2021/12/20 12:39:27;;;;;;;3.08;1.42;;;19.10;46.80;;;;;;5016377;28;20266;-75
2021/12/20 12:42:00;;;;;;;2.80;1.50;;;19.80;46.20;;;;;;5027743;28;20180;-75
2021/12/20 12:44:28;;;;;;;2.38;1.40;;;19.10;46.70;;;;;;5037031;28;20180;-77
2021/12/20 12:47:12;;;;;;;1.42;1.27;;;18.70;46.90;;;;;;5039868;28;20548;-77
2021/12/20 12:49:42;;;;;;;2.92;1.05;;;17.60;47.20;;;;;;5044806;28;20194;-76
2021/12/20 12:52:16;;;;;;;2.25;1.40;;;16.70;48.80;;;;;;5044480;28;20176;-77
2021/12/20 12:54:55;;;;;;;1.95;1.38;;;15.70;49.70;;;;;;5038973;28;20196;-75
2021/12/20 12:57:20;;;;;;;3.58;1.50;;;14.80;51.70;;;;;;5040102;28;20542;-77
2021/12/20 12:59:56;;;;;;;1.92;1.38;;;13.90;53.40;;;;;;5037023;28;20295;-76
2021/12/20 13:02:38;;;;;;;4.03;1.95;;;13.90;55.20;;;;;;5036061;28;20226;-75
2021/12/20 13:05:15;;;;;;;3.40;1.35;;;14.00;54.00;;;;;;5029768;28;20577;-76
2021/12/20 13:07:48;;;;;;;4.85;1.55;;;14.20;53.80;;;;;;5032676;28;20226;-75
2021/12/20 13:10:16;;;;;;;4.57;1.45;;;14.30;53.40;;;;;;5031945;28;20192;-76
2021/12/20 13:17:47;;;;;;;2.88;1.10;;;13.90;54.70;;;;;;5031770;28;20204;-76
2021/12/20 13:20:40;;;;;;;7.60;1.80;;;13.90;54.90;;;;;;5026703;28;20671;-74